sensor_id;sensor_type;location;lat;lon;timestamp;P1;durP1;ratioP1;P2;durP2;ratioP2
65613;SDS011;52283;49.292;10.572;2023-05-10T00:00:43;2.10;;;1.88;;
65613;SDS011;52283;49.292;10.572;2023-05-10T00:03:10;1.80;;;1.60;;
65613;SDS011;52283;49.292;10.572;2023-05-10T00:05:36;2.00;;;1.67;;
65613;SDS011;52283;49.292;10.572;2023-05-10T00:08:03;2.97;;;1.65;;
65613;SDS011;52283;49.292;10.572;2023-05-10T00:10:29;2.10;;;1.83;;
65613;SDS011;52283;49.292;10.572;2023-05-10T00:12:56;2.55;;;1.90;;
65613;SDS011;52283;49.292;10.572;2023-05-10T00:15:24;3.50;;;2.47;;
65613;SDS011;52283;49.292;10.572;2023-05-10T00:17:50;4.72;;;3.13;;
65613;SDS011;52283;49.292;10.572;2023-05-10T00:20:16;2.00;;;1.80;;
65613;SDS011;52283;49.292;10.572;2023-05-10T00:22:43;2.30;;;1.63;;
65613;SDS011;52283;49.292;10.572;2023-05-10T00:25:09;2.55;;;2.13;;
65613;SDS011;52283;49.292;10.572;2023-05-10T00:27:36;2.30;;;1.98;;
65613;SDS011;52283;49.292;10.572;2023-05-10T00:30:02;4.05;;;2.30;;
65613;SDS011;52283;49.292;10.572;2023-05-10T00:32:31;2.20;;;2.00;;
65613;SDS011;52283;49.292;10.572;2023-05-10T00:34:58;3.67;;;2.05;;
65613;SDS011;52283;49.292;10.572;2023-05-10T00:37:24;4.05;;;2.13;;
65613;SDS011;52283;49.292;10.572;2023-05-10T00:39:51;4.20;;;2.22;;
65613;SDS011;52283;49.292;10.572;2023-05-10T00:42:17;3.97;;;2.17;;
65613;SDS011;52283;49.292;10.572;2023-05-10T00:44:44;2.83;;;2.08;;
65613;SDS011;52283;49.292;10.572;2023-05-10T00:47:11;3.35;;;2.10;;
65613;SDS011;52283;49.292;10.572;2023-05-10T00:49:39;3.63;;;3.33;;
65613;SDS011;52283;49.292;10.572;2023-05-10T00:52:07;3.75;;;2.20;;
65613;SDS011;52283;49.292;10.572;2023-05-10T00:54:34;2.17;;;1.90;;
65613;SDS011;52283;49.292;10.572;2023-05-10T00:57:00;3.03;;;1.95;;
65613;SDS011;52283;49.292;10.572;2023-05-10T00:59:27;2.15;;;1.77;;
65613;SDS011;52283;49.292;10.572;2023-05-10T01:01:54;3.55;;;1.30;;
65613;SDS011;52283;49.292;10.572;2023-05-10T01:04:21;2.35;;;1.40;;
65613;SDS011;52283;49.292;10.572;2023-05-10T01:06:51;4.85;;;1.40;;
65613;SDS011;52283;49.292;10.572;2023-05-10T01:09:18;4.75;;;1.70;;
65613;SDS011;52283;49.292;10.572;2023-05-10T01:11:45;1.60;;;1.35;;
65613;SDS011;52283;49.292;10.572;2023-05-10T01:14:12;2.30;;;1.35;;
65613;SDS011;52283;49.292;10.572;2023-05-10T01:16:39;3.00;;;1.60;;
65613;SDS011;52283;49.292;10.572;2023-05-10T01:19:22;1.67;;;1.27;;
65613;SDS011;52283;49.292;10.572;2023-05-10T01:21:55;1.63;;;1.42;;
65613;SDS011;52283;49.292;10.572;2023-05-10T01:24:39;1.67;;;1.50;;
65613;SDS011;52283;49.292;10.572;2023-05-10T01:27:40;2.88;;;1.50;;
65613;SDS011;52283;49.292;10.572;2023-05-10T01:30:33;3.95;;;1.20;;
65613;SDS011;52283;49.292;10.572;2023-05-10T01:33:18;1.15;;;1.05;;
65613;SDS011;52283;49.292;10.572;2023-05-10T01:35:51;1.45;;;1.35;;
65613;SDS011;52283;49.292;10.572;2023-05-10T01:38:24;1.08;;;1.08;;
65613;SDS011;52283;49.292;10.572;2023-05-10T01:41:01;1.30;;;1.20;;
65613;SDS011;52283;49.292;10.572;2023-05-10T01:43:37;1.92;;;1.08;;
65613;SDS011;52283;49.292;10.572;2023-05-10T01:46:14;1.20;;;0.90;;
65613;SDS011;52283;49.292;10.572;2023-05-10T01:48:47;1.45;;;1.17;;
65613;SDS011;52283;49.292;10.572;2023-05-10T01:51:14;1.08;;;0.80;;
65613;SDS011;52283;49.292;10.572;2023-05-10T01:56:12;0.32;;;0.32;;
65613;SDS011;52283;49.292;10.572;2023-05-10T01:58:40;0.73;;;0.40;;
65613;SDS011;52283;49.292;10.572;2023-05-10T02:03:38;0.95;;;0.60;;
65613;SDS011;52283;49.292;10.572;2023-05-10T02:06:08;0.50;;;0.50;;
65613;SDS011;52283;49.292;10.572;2023-05-10T02:08:36;0.90;;;0.85;;
65613;SDS011;52283;49.292;10.572;2023-05-10T02:11:06;5.70;;;0.77;;
65613;SDS011;52283;49.292;10.572;2023-05-10T02:13:34;1.55;;;1.08;;
65613;SDS011;52283;49.292;10.572;2023-05-10T02:16:04;1.00;;;0.50;;
65613;SDS011;52283;49.292;10.572;2023-05-10T02:18:32;0.63;;;0.40;;
65613;SDS011;52283;49.292;10.572;2023-05-10T02:21:01;0.40;;;0.40;;
65613;SDS011;52283;49.292;10.572;2023-05-10T02:23:30;1.00;;;0.50;;
65613;SDS011;52283;49.292;10.572;2023-05-10T02:25:57;0.40;;;0.40;;
65613;SDS011;52283;49.292;10.572;2023-05-10T02:28:26;2.05;;;0.50;;
65613;SDS011;52283;49.292;10.572;2023-05-10T02:30:55;4.22;;;1.17;;
65613;SDS011;52283;49.292;10.572;2023-05-10T02:33:23;0.20;;;0.20;;
65613;SDS011;52283;49.292;10.572;2023-05-10T02:35:50;0.43;;;0.30;;
65613;SDS011;52283;49.292;10.572;2023-05-10T02:38:16;0.47;;;0.20;;
65613;SDS011;52283;49.292;10.572;2023-05-10T02:40:47;0.22;;;0.22;;
65613;SDS011;52283;49.292;10.572;2023-05-10T02:43:14;0.10;;;0.10;;
65613;SDS011;52283;49.292;10.572;2023-05-10T02:45:43;0.40;;;0.20;;
65613;SDS011;52283;49.292;10.572;2023-05-10T02:48:12;0.32;;;0.20;;
65613;SDS011;52283;49.292;10.572;2023-05-10T02:50:39;0.20;;;0.20;;
65613;SDS011;52283;49.292;10.572;2023-05-10T02:53:10;0.28;;;0.20;;
65613;SDS011;52283;49.292;10.572;2023-05-10T02:55:41;0.20;;;0.20;;
65613;SDS011;52283;49.292;10.572;2023-05-10T02:58:13;0.20;;;0.20;;
65613;SDS011;52283;49.292;10.572;2023-05-10T03:00:40;0.20;;;0.20;;
65613;SDS011;52283;49.292;10.572;2023-05-10T03:03:06;0.25;;;0.25;;
65613;SDS011;52283;49.292;10.572;2023-05-10T03:05:33;0.63;;;0.20;;
65613;SDS011;52283;49.292;10.572;2023-05-10T03:07:59;0.20;;;0.20;;
65613;SDS011;52283;49.292;10.572;2023-05-10T03:10:29;0.75;;;0.25;;
65613;SDS011;52283;49.292;10.572;2023-05-10T03:13:02;2.28;;;0.30;;
65613;SDS011;52283;49.292;10.572;2023-05-10T03:15:37;1.15;;;0.40;;
65613;SDS011;52283;49.292;10.572;2023-05-10T03:18:09;0.73;;;0.22;;
65613;SDS011;52283;49.292;10.572;2023-05-10T03:20:38;0.70;;;0.30;;
65613;SDS011;52283;49.292;10.572;2023-05-10T03:23:11;4.18;;;0.35;;
65613;SDS011;52283;49.292;10.572;2023-05-10T03:25:39;0.90;;;0.30;;
65613;SDS011;52283;49.292;10.572;2023-05-10T03:28:08;0.40;;;0.40;;
65613;SDS011;52283;49.292;10.572;2023-05-10T03:30:36;1.75;;;0.20;;
65613;SDS011;52283;49.292;10.572;2023-05-10T03:33:04;0.38;;;0.38;;
65613;SDS011;52283;49.292;10.572;2023-05-10T03:35:31;0.82;;;0.40;;
65613;SDS011;52283;49.292;10.572;2023-05-10T03:37:58;0.40;;;0.30;;
65613;SDS011;52283;49.292;10.572;2023-05-10T03:40:24;0.88;;;0.30;;
65613;SDS011;52283;49.292;10.572;2023-05-10T03:42:53;0.65;;;0.40;;
65613;SDS011;52283;49.292;10.572;2023-05-10T03:45:20;0.38;;;0.38;;
65613;SDS011;52283;49.292;10.572;2023-05-10T03:47:48;0.25;;;0.25;;
65613;SDS011;52283;49.292;10.572;2023-05-10T03:50:14;0.38;;;0.35;;
65613;SDS011;52283;49.292;10.572;2023-05-10T03:52:41;0.30;;;0.30;;
65613;SDS011;52283;49.292;10.572;2023-05-10T03:55:08;0.20;;;0.20;;
65613;SDS011;52283;49.292;10.572;2023-05-10T03:57:35;0.35;;;0.30;;
65613;SDS011;52283;49.292;10.572;2023-05-10T04:00:01;0.57;;;0.40;;
65613;SDS011;52283;49.292;10.572;2023-05-10T04:02:28;0.30;;;0.30;;
65613;SDS011;52283;49.292;10.572;2023-05-10T04:04:56;0.28;;;0.25;;
65613;SDS011;52283;49.292;10.572;2023-05-10T04:07:23;0.30;;;0.30;;
65613;SDS011;52283;49.292;10.572;2023-05-10T04:09:49;0.75;;;0.45;;
65613;SDS011;52283;49.292;10.572;2023-05-10T04:12:16;0.50;;;0.40;;
65613;SDS011;52283;49.292;10.572;2023-05-10T04:14:42;0.40;;;0.40;;
65613;SDS011;52283;49.292;10.572;2023-05-10T04:17:09;0.60;;;0.57;;
65613;SDS011;52283;49.292;10.572;2023-05-10T04:19:35;0.60;;;0.50;;
65613;SDS011;52283;49.292;10.572;2023-05-10T04:22:03;1.17;;;0.95;;
65613;SDS011;52283;49.292;10.572;2023-05-10T04:24:30;2.03;;;0.80;;
65613;SDS011;52283;49.292;10.572;2023-05-10T04:26:56;0.50;;;0.50;;
65613;SDS011;52283;49.292;10.572;2023-05-10T04:29:22;0.50;;;0.50;;
65613;SDS011;52283;49.292;10.572;2023-05-10T04:31:49;0.52;;;0.45;;
65613;SDS011;52283;49.292;10.572;2023-05-10T04:34:15;0.60;;;0.60;;
65613;SDS011;52283;49.292;10.572;2023-05-10T04:36:42;0.90;;;0.65;;
65613;SDS011;52283;49.292;10.572;2023-05-10T04:39:10;0.85;;;0.70;;
65613;SDS011;52283;49.292;10.572;2023-05-10T04:41:37;1.25;;;1.02;;
65613;SDS011;52283;49.292;10.572;2023-05-10T04:44:04;1.05;;;0.93;;
65613;SDS011;52283;49.292;10.572;2023-05-10T04:46:30;1.20;;;1.10;;
65613;SDS011;52283;49.292;10.572;2023-05-10T04:48:57;1.40;;;1.30;;
65613;SDS011;52283;49.292;10.572;2023-05-10T04:51:23;4.55;;;1.30;;
65613;SDS011;52283;49.292;10.572;2023-05-10T04:53:50;1.67;;;1.58;;
65613;SDS011;52283;49.292;10.572;2023-05-10T04:56:17;2.03;;;1.80;;
65613;SDS011;52283;49.292;10.572;2023-05-10T04:58:44;1.70;;;1.60;;
65613;SDS011;52283;49.292;10.572;2023-05-10T05:01:10;2.03;;;1.83;;
65613;SDS011;52283;49.292;10.572;2023-05-10T05:03:37;1.60;;;1.50;;
65613;SDS011;52283;49.292;10.572;2023-05-10T05:06:03;2.50;;;2.30;;
65613;SDS011;52283;49.292;10.572;2023-05-10T05:08:30;3.05;;;1.88;;
65613;SDS011;52283;49.292;10.572;2023-05-10T05:10:57;2.17;;;2.00;;
65613;SDS011;52283;49.292;10.572;2023-05-10T05:13:25;2.28;;;2.08;;
65613;SDS011;52283;49.292;10.572;2023-05-10T05:15:52;2.58;;;2.38;;
65613;SDS011;52283;49.292;10.572;2023-05-10T05:18:18;2.60;;;2.40;;
65613;SDS011;52283;49.292;10.572;2023-05-10T05:20:45;1.88;;;1.75;;
65613;SDS011;52283;49.292;10.572;2023-05-10T05:23:11;2.22;;;2.03;;
65613;SDS011;52283;49.292;10.572;2023-05-10T05:25:38;2.13;;;2.03;;
65613;SDS011;52283;49.292;10.572;2023-05-10T05:28:04;3.13;;;2.13;;
65613;SDS011;52283;49.292;10.572;2023-05-10T05:30:32;2.90;;;2.45;;
65613;SDS011;52283;49.292;10.572;2023-05-10T05:32:58;2.78;;;2.25;;
65613;SDS011;52283;49.292;10.572;2023-05-10T05:35:25;2.67;;;2.08;;
65613;SDS011;52283;49.292;10.572;2023-05-10T05:37:51;2.60;;;2.40;;
65613;SDS011;52283;49.292;10.572;2023-05-10T05:40:17;3.88;;;2.42;;
65613;SDS011;52283;49.292;10.572;2023-05-10T05:42:45;4.30;;;3.30;;
65613;SDS011;52283;49.292;10.572;2023-05-10T05:45:11;3.08;;;2.60;;
65613;SDS011;52283;49.292;10.572;2023-05-10T05:47:40;2.88;;;2.67;;
65613;SDS011;52283;49.292;10.572;2023-05-10T05:50:07;3.00;;;2.55;;
65613;SDS011;52283;49.292;10.572;2023-05-10T05:52:34;2.33;;;2.22;;
65613;SDS011;52283;49.292;10.572;2023-05-10T05:55:01;2.05;;;1.95;;
65613;SDS011;52283;49.292;10.572;2023-05-10T05:57:27;2.15;;;2.00;;
65613;SDS011;52283;49.292;10.572;2023-05-10T05:59:54;3.58;;;2.10;;
65613;SDS011;52283;49.292;10.572;2023-05-10T06:02:21;3.22;;;1.17;;
65613;SDS011;52283;49.292;10.572;2023-05-10T06:04:48;1.80;;;1.70;;
65613;SDS011;52283;49.292;10.572;2023-05-10T06:07:15;1.70;;;1.50;;
65613;SDS011;52283;49.292;10.572;2023-05-10T06:09:41;2.08;;;1.98;;
65613;SDS011;52283;49.292;10.572;2023-05-10T06:12:08;1.98;;;1.88;;
65613;SDS011;52283;49.292;10.572;2023-05-10T06:14:34;1.73;;;1.55;;
65613;SDS011;52283;49.292;10.572;2023-05-10T06:17:01;2.15;;;1.95;;
65613;SDS011;52283;49.292;10.572;2023-05-10T06:19:29;2.08;;;1.98;;
65613;SDS011;52283;49.292;10.572;2023-05-10T06:21:57;3.13;;;1.90;;
65613;SDS011;52283;49.292;10.572;2023-05-10T06:24:24;3.90;;;1.80;;
65613;SDS011;52283;49.292;10.572;2023-05-10T06:26:52;3.90;;;2.00;;
65613;SDS011;52283;49.292;10.572;2023-05-10T06:29:18;4.15;;;2.88;;
65613;SDS011;52283;49.292;10.572;2023-05-10T06:31:44;2.58;;;2.38;;
65613;SDS011;52283;49.292;10.572;2023-05-10T06:34:11;2.90;;;2.08;;
65613;SDS011;52283;49.292;10.572;2023-05-10T06:36:38;2.15;;;2.03;;
65613;SDS011;52283;49.292;10.572;2023-05-10T06:39:06;3.42;;;3.13;;
65613;SDS011;52283;49.292;10.572;2023-05-10T06:41:33;4.00;;;1.77;;
65613;SDS011;52283;49.292;10.572;2023-05-10T06:43:59;2.30;;;2.20;;
65613;SDS011;52283;49.292;10.572;2023-05-10T06:46:25;2.20;;;2.10;;
65613;SDS011;52283;49.292;10.572;2023-05-10T06:48:52;7.35;;;1.90;;
65613;SDS011;52283;49.292;10.572;2023-05-10T06:51:18;1.88;;;1.75;;
65613;SDS011;52283;49.292;10.572;2023-05-10T06:53:46;2.72;;;2.42;;
65613;SDS011;52283;49.292;10.572;2023-05-10T06:56:13;2.13;;;1.92;;
65613;SDS011;52283;49.292;10.572;2023-05-10T06:58:40;2.22;;;2.03;;
65613;SDS011;52283;49.292;10.572;2023-05-10T07:01:06;2.22;;;2.03;;
65613;SDS011;52283;49.292;10.572;2023-05-10T07:03:33;3.50;;;2.65;;
65613;SDS011;52283;49.292;10.572;2023-05-10T07:06:00;2.42;;;2.22;;
65613;SDS011;52283;49.292;10.572;2023-05-10T07:08:28;2.67;;;2.50;;
65613;SDS011;52283;49.292;10.572;2023-05-10T07:10:58;2.65;;;2.38;;
65613;SDS011;52283;49.292;10.572;2023-05-10T07:13:27;2.60;;;2.40;;
65613;SDS011;52283;49.292;10.572;2023-05-10T07:15:53;5.75;;;2.50;;
65613;SDS011;52283;49.292;10.572;2023-05-10T07:18:20;4.05;;;3.25;;
65613;SDS011;52283;49.292;10.572;2023-05-10T07:20:46;3.42;;;3.05;;
65613;SDS011;52283;49.292;10.572;2023-05-10T07:23:13;4.95;;;2.65;;
65613;SDS011;52283;49.292;10.572;2023-05-10T07:25:39;2.70;;;2.50;;
65613;SDS011;52283;49.292;10.572;2023-05-10T07:28:05;2.75;;;2.55;;
65613;SDS011;52283;49.292;10.572;2023-05-10T07:30:33;3.42;;;2.58;;
65613;SDS011;52283;49.292;10.572;2023-05-10T07:33:00;8.82;;;3.47;;
65613;SDS011;52283;49.292;10.572;2023-05-10T07:35:26;3.42;;;2.38;;
65613;SDS011;52283;49.292;10.572;2023-05-10T07:37:52;5.82;;;1.95;;
65613;SDS011;52283;49.292;10.572;2023-05-10T07:40:19;2.30;;;2.10;;
65613;SDS011;52283;49.292;10.572;2023-05-10T07:42:45;2.50;;;1.90;;
65613;SDS011;52283;49.292;10.572;2023-05-10T07:45:12;2.00;;;1.83;;
65613;SDS011;52283;49.292;10.572;2023-05-10T07:47:40;1.70;;;1.45;;
65613;SDS011;52283;49.292;10.572;2023-05-10T07:50:07;1.33;;;1.23;;
65613;SDS011;52283;49.292;10.572;2023-05-10T07:52:34;3.20;;;1.33;;
65613;SDS011;52283;49.292;10.572;2023-05-10T07:55:00;1.30;;;1.17;;
65613;SDS011;52283;49.292;10.572;2023-05-10T07:57:27;1.77;;;1.65;;
65613;SDS011;52283;49.292;10.572;2023-05-10T07:59:53;1.50;;;1.17;;
65613;SDS011;52283;49.292;10.572;2023-05-10T08:02:20;3.40;;;1.48;;
65613;SDS011;52283;49.292;10.572;2023-05-10T08:04:47;1.83;;;1.10;;
65613;SDS011;52283;49.292;10.572;2023-05-10T08:07:14;1.65;;;1.20;;
65613;SDS011;52283;49.292;10.572;2023-05-10T08:09:40;2.70;;;1.50;;
65613;SDS011;52283;49.292;10.572;2023-05-10T08:12:07;3.08;;;1.05;;
65613;SDS011;52283;49.292;10.572;2023-05-10T08:14:33;5.70;;;1.88;;
65613;SDS011;52283;49.292;10.572;2023-05-10T08:17:01;1.52;;;1.10;;
65613;SDS011;52283;49.292;10.572;2023-05-10T08:19:28;1.35;;;1.25;;
65613;SDS011;52283;49.292;10.572;2023-05-10T08:21:55;5.10;;;1.10;;
65613;SDS011;52283;49.292;10.572;2023-05-10T08:24:22;1.88;;;0.90;;
65613;SDS011;52283;49.292;10.572;2023-05-10T08:26:48;2.70;;;0.80;;
65613;SDS011;52283;49.292;10.572;2023-05-10T08:29:15;2.80;;;0.77;;
65613;SDS011;52283;49.292;10.572;2023-05-10T08:31:41;3.38;;;0.93;;
65613;SDS011;52283;49.292;10.572;2023-05-10T08:34:08;1.60;;;0.90;;
65613;SDS011;52283;49.292;10.572;2023-05-10T08:36:34;2.70;;;1.08;;
65613;SDS011;52283;49.292;10.572;2023-05-10T08:39:02;4.50;;;0.85;;
65613;SDS011;52283;49.292;10.572;2023-05-10T08:41:29;1.13;;;1.02;;
65613;SDS011;52283;49.292;10.572;2023-05-10T08:43:59;1.60;;;0.85;;
65613;SDS011;52283;49.292;10.572;2023-05-10T08:46:30;1.23;;;0.98;;
65613;SDS011;52283;49.292;10.572;2023-05-10T08:49:00;1.92;;;1.20;;
65613;SDS011;52283;49.292;10.572;2023-05-10T08:51:29;2.42;;;1.00;;
65613;SDS011;52283;49.292;10.572;2023-05-10T08:53:59;1.73;;;1.38;;
65613;SDS011;52283;49.292;10.572;2023-05-10T08:56:27;2.88;;;1.13;;
65613;SDS011;52283;49.292;10.572;2023-05-10T08:58:54;1.85;;;1.35;;
65613;SDS011;52283;49.292;10.572;2023-05-10T09:01:21;3.88;;;1.40;;
65613;SDS011;52283;49.292;10.572;2023-05-10T09:03:48;2.53;;;1.45;;
65613;SDS011;52283;49.292;10.572;2023-05-10T09:06:16;5.35;;;1.20;;
65613;SDS011;52283;49.292;10.572;2023-05-10T09:08:43;3.42;;;1.10;;
65613;SDS011;52283;49.292;10.572;2023-05-10T09:11:11;2.58;;;1.33;;
65613;SDS011;52283;49.292;10.572;2023-05-10T09:13:39;2.95;;;1.70;;
65613;SDS011;52283;49.292;10.572;2023-05-10T09:16:08;2.17;;;1.27;;
65613;SDS011;52283;49.292;10.572;2023-05-10T09:18:35;3.03;;;1.15;;
65613;SDS011;52283;49.292;10.572;2023-05-10T09:21:01;1.70;;;1.20;;
65613;SDS011;52283;49.292;10.572;2023-05-10T09:23:28;3.90;;;1.45;;
65613;SDS011;52283;49.292;10.572;2023-05-10T09:26:03;2.05;;;1.65;;
65613;SDS011;52283;49.292;10.572;2023-05-10T09:28:31;1.73;;;1.63;;
65613;SDS011;52283;49.292;10.572;2023-05-10T09:30:59;1.52;;;1.42;;
65613;SDS011;52283;49.292;10.572;2023-05-10T09:33:25;1.40;;;1.30;;
65613;SDS011;52283;49.292;10.572;2023-05-10T09:35:52;2.78;;;1.10;;
65613;SDS011;52283;49.292;10.572;2023-05-10T09:38:18;3.40;;;1.13;;
65613;SDS011;52283;49.292;10.572;2023-05-10T09:40:50;3.20;;;1.00;;
65613;SDS011;52283;49.292;10.572;2023-05-10T09:43:19;0.82;;;0.82;;
65613;SDS011;52283;49.292;10.572;2023-05-10T09:45:46;1.27;;;1.17;;
65613;SDS011;52283;49.292;10.572;2023-05-10T09:48:15;2.28;;;0.73;;
65613;SDS011;52283;49.292;10.572;2023-05-10T09:50:42;0.80;;;0.80;;
65613;SDS011;52283;49.292;10.572;2023-05-10T09:53:08;1.55;;;0.80;;
65613;SDS011;52283;49.292;10.572;2023-05-10T09:55:39;0.60;;;0.60;;
65613;SDS011;52283;49.292;10.572;2023-05-10T09:58:06;0.80;;;0.80;;
65613;SDS011;52283;49.292;10.572;2023-05-10T10:00:35;0.70;;;0.70;;
65613;SDS011;52283;49.292;10.572;2023-05-10T10:03:02;0.70;;;0.70;;
65613;SDS011;52283;49.292;10.572;2023-05-10T10:05:32;1.25;;;0.90;;
65613;SDS011;52283;49.292;10.572;2023-05-10T10:08:00;0.80;;;0.75;;
65613;SDS011;52283;49.292;10.572;2023-05-10T10:10:29;2.22;;;0.90;;
65613;SDS011;52283;49.292;10.572;2023-05-10T10:12:57;1.20;;;0.95;;
65613;SDS011;52283;49.292;10.572;2023-05-10T10:15:24;1.25;;;1.00;;
65613;SDS011;52283;49.292;10.572;2023-05-10T10:17:51;2.13;;;1.00;;
65613;SDS011;52283;49.292;10.572;2023-05-10T10:20:19;1.80;;;1.00;;
65613;SDS011;52283;49.292;10.572;2023-05-10T10:22:48;2.97;;;1.00;;
65613;SDS011;52283;49.292;10.572;2023-05-10T10:25:16;2.65;;;0.95;;
65613;SDS011;52283;49.292;10.572;2023-05-10T10:27:45;0.55;;;0.55;;
65613;SDS011;52283;49.292;10.572;2023-05-10T10:30:22;4.63;;;0.60;;
65613;SDS011;52283;49.292;10.572;2023-05-10T10:32:59;0.98;;;0.63;;
65613;SDS011;52283;49.292;10.572;2023-05-10T10:35:36;1.95;;;0.70;;
65613;SDS011;52283;49.292;10.572;2023-05-10T10:38:05;1.10;;;0.70;;
65613;SDS011;52283;49.292;10.572;2023-05-10T10:40:34;0.90;;;0.90;;
65613;SDS011;52283;49.292;10.572;2023-05-10T10:48:37;2.45;;;1.45;;
65613;SDS011;52283;49.292;10.572;2023-05-10T10:51:03;1.38;;;1.27;;
65613;SDS011;52283;49.292;10.572;2023-05-10T10:53:31;1.45;;;1.30;;
65613;SDS011;52283;49.292;10.572;2023-05-10T10:56:05;2.00;;;1.30;;
65613;SDS011;52283;49.292;10.572;2023-05-10T10:58:34;1.25;;;1.15;;
65613;SDS011;52283;49.292;10.572;2023-05-10T11:01:12;2.92;;;1.48;;
65613;SDS011;52283;49.292;10.572;2023-05-10T11:03:39;1.67;;;1.58;;
65613;SDS011;52283;49.292;10.572;2023-05-10T11:06:06;6.43;;;1.50;;
65613;SDS011;52283;49.292;10.572;2023-05-10T11:08:41;1.30;;;1.20;;
65613;SDS011;52283;49.292;10.572;2023-05-10T11:11:08;2.35;;;1.42;;
65613;SDS011;52283;49.292;10.572;2023-05-10T11:13:38;2.67;;;2.15;;
65613;SDS011;52283;49.292;10.572;2023-05-10T11:16:09;2.78;;;2.50;;
65613;SDS011;52283;49.292;10.572;2023-05-10T11:18:38;2.10;;;2.00;;
65613;SDS011;52283;49.292;10.572;2023-05-10T11:21:04;3.08;;;1.80;;
65613;SDS011;52283;49.292;10.572;2023-05-10T11:23:47;2.42;;;2.22;;
65613;SDS011;52283;49.292;10.572;2023-05-10T11:26:15;2.05;;;1.85;;
65613;SDS011;52283;49.292;10.572;2023-05-10T11:28:42;3.30;;;2.50;;
65613;SDS011;52283;49.292;10.572;2023-05-10T11:31:09;3.03;;;1.75;;
65613;SDS011;52283;49.292;10.572;2023-05-10T11:33:42;1.55;;;1.42;;
65613;SDS011;52283;49.292;10.572;2023-05-10T11:36:10;1.90;;;1.80;;
65613;SDS011;52283;49.292;10.572;2023-05-10T11:38:38;3.03;;;1.40;;
65613;SDS011;52283;49.292;10.572;2023-05-10T11:41:05;2.35;;;1.67;;
65613;SDS011;52283;49.292;10.572;2023-05-10T11:43:31;1.40;;;1.30;;
65613;SDS011;52283;49.292;10.572;2023-05-10T11:45:58;7.10;;;1.48;;
65613;SDS011;52283;49.292;10.572;2023-05-10T11:48:25;3.15;;;1.40;;
65613;SDS011;52283;49.292;10.572;2023-05-10T11:50:51;9.23;;;1.60;;
65613;SDS011;52283;49.292;10.572;2023-05-10T11:53:21;1.65;;;0.95;;
65613;SDS011;52283;49.292;10.572;2023-05-10T11:55:49;0.93;;;0.70;;
65613;SDS011;52283;49.292;10.572;2023-05-10T11:58:17;1.13;;;0.70;;
65613;SDS011;52283;49.292;10.572;2023-05-10T12:00:46;0.95;;;0.95;;
65613;SDS011;52283;49.292;10.572;2023-05-10T12:03:13;0.70;;;0.70;;
65613;SDS011;52283;49.292;10.572;2023-05-10T12:05:39;1.73;;;0.95;;
65613;SDS011;52283;49.292;10.572;2023-05-10T12:08:13;2.40;;;1.30;;
65613;SDS011;52283;49.292;10.572;2023-05-10T12:10:40;1.17;;;0.70;;
65613;SDS011;52283;49.292;10.572;2023-05-10T12:13:11;2.00;;;0.70;;
65613;SDS011;52283;49.292;10.572;2023-05-10T12:15:39;0.65;;;0.65;;
65613;SDS011;52283;49.292;10.572;2023-05-10T12:18:05;1.05;;;0.60;;
65613;SDS011;52283;49.292;10.572;2023-05-10T12:20:35;1.02;;;0.65;;
65613;SDS011;52283;49.292;10.572;2023-05-10T12:23:02;2.83;;;0.80;;
65613;SDS011;52283;49.292;10.572;2023-05-10T12:25:30;1.15;;;1.05;;
65613;SDS011;52283;49.292;10.572;2023-05-10T12:27:59;1.38;;;0.93;;
65613;SDS011;52283;49.292;10.572;2023-05-10T12:30:30;0.98;;;0.70;;
65613;SDS011;52283;49.292;10.572;2023-05-10T12:32:59;3.67;;;1.38;;
65613;SDS011;52283;49.292;10.572;2023-05-10T12:35:29;2.17;;;0.80;;
65613;SDS011;52283;49.292;10.572;2023-05-10T12:37:56;3.53;;;2.05;;
65613;SDS011;52283;49.292;10.572;2023-05-10T12:40:22;2.20;;;1.38;;
65613;SDS011;52283;49.292;10.572;2023-05-10T12:42:49;1.60;;;1.00;;
65613;SDS011;52283;49.292;10.572;2023-05-10T12:45:16;1.95;;;1.73;;
65613;SDS011;52283;49.292;10.572;2023-05-10T12:47:45;4.00;;;0.98;;
65613;SDS011;52283;49.292;10.572;2023-05-10T12:50:12;0.77;;;0.73;;
65613;SDS011;52283;49.292;10.572;2023-05-10T12:52:38;0.80;;;0.80;;
65613;SDS011;52283;49.292;10.572;2023-05-10T12:55:05;2.65;;;1.02;;
65613;SDS011;52283;49.292;10.572;2023-05-10T12:57:31;1.35;;;1.00;;
65613;SDS011;52283;49.292;10.572;2023-05-10T12:59:58;1.58;;;0.82;;
65613;SDS011;52283;49.292;10.572;2023-05-10T13:02:24;0.90;;;0.90;;
65613;SDS011;52283;49.292;10.572;2023-05-10T13:04:52;0.90;;;0.90;;
65613;SDS011;52283;49.292;10.572;2023-05-10T13:07:18;1.58;;;0.73;;
65613;SDS011;52283;49.292;10.572;2023-05-10T13:09:45;0.77;;;0.50;;
65613;SDS011;52283;49.292;10.572;2023-05-10T13:12:11;0.50;;;0.50;;
65613;SDS011;52283;49.292;10.572;2023-05-10T13:14:38;0.63;;;0.55;;
65613;SDS011;52283;49.292;10.572;2023-05-10T13:17:05;2.15;;;0.47;;
65613;SDS011;52283;49.292;10.572;2023-05-10T13:19:32;1.65;;;0.55;;
65613;SDS011;52283;49.292;10.572;2023-05-10T13:21:59;0.82;;;0.55;;
65613;SDS011;52283;49.292;10.572;2023-05-10T13:24:26;1.80;;;0.63;;
65613;SDS011;52283;49.292;10.572;2023-05-10T13:26:52;0.60;;;0.55;;
65613;SDS011;52283;49.292;10.572;2023-05-10T13:29:19;1.15;;;0.80;;
65613;SDS011;52283;49.292;10.572;2023-05-10T13:31:47;2.00;;;0.95;;
65613;SDS011;52283;49.292;10.572;2023-05-10T13:34:14;0.70;;;0.70;;
65613;SDS011;52283;49.292;10.572;2023-05-10T13:36:40;1.67;;;0.80;;
65613;SDS011;52283;49.292;10.572;2023-05-10T13:39:08;1.15;;;0.47;;
65613;SDS011;52283;49.292;10.572;2023-05-10T13:41:35;0.85;;;0.60;;
65613;SDS011;52283;49.292;10.572;2023-05-10T13:44:01;0.85;;;0.50;;
65613;SDS011;52283;49.292;10.572;2023-05-10T13:46:28;0.95;;;0.80;;
65613;SDS011;52283;49.292;10.572;2023-05-10T13:48:55;1.75;;;0.98;;
65613;SDS011;52283;49.292;10.572;2023-05-10T13:51:21;0.90;;;0.90;;
65613;SDS011;52283;49.292;10.572;2023-05-10T13:53:48;2.13;;;1.30;;
65613;SDS011;52283;49.292;10.572;2023-05-10T13:56:16;1.77;;;0.52;;
65613;SDS011;52283;49.292;10.572;2023-05-10T13:58:42;3.45;;;1.30;;
65613;SDS011;52283;49.292;10.572;2023-05-10T14:01:09;1.40;;;1.10;;
65613;SDS011;52283;49.292;10.572;2023-05-10T14:03:36;3.63;;;0.90;;
65613;SDS011;52283;49.292;10.572;2023-05-10T14:06:03;0.73;;;0.70;;
65613;SDS011;52283;49.292;10.572;2023-05-10T14:08:30;1.65;;;0.60;;
65613;SDS011;52283;49.292;10.572;2023-05-10T14:10:56;1.23;;;0.80;;
65613;SDS011;52283;49.292;10.572;2023-05-10T14:13:24;1.20;;;0.70;;
65613;SDS011;52283;49.292;10.572;2023-05-10T14:15:51;0.50;;;0.50;;
65613;SDS011;52283;49.292;10.572;2023-05-10T14:18:18;1.48;;;0.63;;
65613;SDS011;52283;49.292;10.572;2023-05-10T14:20:45;0.70;;;0.65;;
65613;SDS011;52283;49.292;10.572;2023-05-10T14:23:11;0.93;;;0.90;;
65613;SDS011;52283;49.292;10.572;2023-05-10T14:25:39;3.13;;;0.85;;
65613;SDS011;52283;49.292;10.572;2023-05-10T14:28:09;0.57;;;0.43;;
65613;SDS011;52283;49.292;10.572;2023-05-10T14:30:37;0.90;;;0.90;;
65613;SDS011;52283;49.292;10.572;2023-05-10T14:33:03;0.80;;;0.80;;
65613;SDS011;52283;49.292;10.572;2023-05-10T14:35:30;0.70;;;0.70;;
65613;SDS011;52283;49.292;10.572;2023-05-10T14:37:56;1.40;;;0.90;;
65613;SDS011;52283;49.292;10.572;2023-05-10T14:40:23;1.25;;;0.80;;
65613;SDS011;52283;49.292;10.572;2023-05-10T14:42:50;1.02;;;0.70;;
65613;SDS011;52283;49.292;10.572;2023-05-10T14:45:17;3.22;;;1.10;;
65613;SDS011;52283;49.292;10.572;2023-05-10T14:47:45;1.10;;;0.80;;